sensor_id;sensor_type;location;lat;lon;timestamp;pressure;altitude;pressure_sealevel;temperature;humidity
50434;BME280;36361;38.954;-9.002;2023-02-23T00:00:12;100945.19;;;13.40;100.00
50434;BME280;36361;38.954;-9.002;2023-02-23T00:01:28;100942.75;;;13.68;100.00
50434;BME280;36361;38.954;-9.002;2023-02-23T00:02:29;100937.50;;;13.85;100.00
50434;BME280;36361;38.954;-9.002;2023-02-23T00:03:30;100940.19;;;13.55;100.00
50434;BME280;36361;38.954;-9.002;2023-02-23T00:04:32;100944.69;;;13.98;100.00
50434;BME280;36361;38.954;-9.002;2023-02-23T00:05:35;100938.50;;;13.72;100.00
50434;BME280;36361;38.954;-9.002;2023-02-23T00:06:37;100937.75;;;13.65;100.00
50434;BME280;36361;38.954;-9.002;2023-02-23T00:07:38;100939.47;;;13.78;100.00
50434;BME280;36361;38.954;-9.002;2023-02-23T00:08:39;100948.91;;;13.82;100.00
50434;BME280;36361;38.954;-9.002;2023-02-23T00:09:40;100937.84;;;13.88;100.00
50434;BME280;36361;38.954;-9.002;2023-02-23T00:10:41;100940.00;;;12.88;100.00
50434;BME280;36361;38.954;-9.002;2023-02-23T00:11:43;100940.56;;;12.97;100.00
50434;BME280;36361;38.954;-9.002;2023-02-23T00:12:44;100936.66;;;13.11;100.00
50434;BME280;36361;38.954;-9.002;2023-02-23T00:13:46;100947.22;;;12.82;100.00
50434;BME280;36361;38.954;-9.002;2023-02-23T00:14:49;100941.75;;;12.58;100.00
50434;BME280;36361;38.954;-9.002;2023-02-23T00:15:49;100943.72;;;12.12;100.00
50434;BME280;36361;38.954;-9.002;2023-02-23T00:16:50;100938.50;;;12.42;100.00
50434;BME280;36361;38.954;-9.002;2023-02-23T00:17:55;100937.06;;;12.65;100.00
50434;BME280;36361;38.954;-9.002;2023-02-23T00:18:58;100940.59;;;12.72;100.00
50434;BME280;36361;38.954;-9.002;2023-02-23T00:19:59;100926.97;;;12.90;100.00
50434;BME280;36361;38.954;-9.002;2023-02-23T00:21:01;100934.72;;;12.68;100.00
50434;BME280;36361;38.954;-9.002;2023-02-23T00:22:01;100937.22;;;12.95;100.00
50434;BME280;36361;38.954;-9.002;2023-02-23T00:23:02;100933.84;;;12.74;100.00
50434;BME280;36361;38.954;-9.002;2023-02-23T00:24:06;100931.63;;;12.65;100.00
50434;BME280;36361;38.954;-9.002;2023-02-23T00:25:10;100934.69;;;12.43;100.00
50434;BME280;36361;38.954;-9.002;2023-02-23T00:26:11;100937.72;;;12.85;100.00
50434;BME280;36361;38.954;-9.002;2023-02-23T00:27:15;100938.56;;;12.86;100.00
50434;BME280;36361;38.954;-9.002;2023-02-23T00:28:20;100933.34;;;12.84;100.00
50434;BME280;36361;38.954;-9.002;2023-02-23T00:29:23;100940.72;;;13.27;100.00
50434;BME280;36361;38.954;-9.002;2023-02-23T00:30:24;100939.06;;;13.62;100.00
50434;BME280;36361;38.954;-9.002;2023-02-23T00:31:26;100938.59;;;13.65;100.00
50434;BME280;36361;38.954;-9.002;2023-02-23T00:32:28;100942.75;;;12.63;100.00
50434;BME280;36361;38.954;-9.002;2023-02-23T00:33:29;100940.56;;;12.97;100.00
50434;BME280;36361;38.954;-9.002;2023-02-23T00:34:30;100941.53;;;12.84;100.00
50434;BME280;36361;38.954;-9.002;2023-02-23T00:35:32;100943.13;;;12.42;100.00
50434;BME280;36361;38.954;-9.002;2023-02-23T00:36:34;100949.28;;;12.62;100.00
50434;BME280;36361;38.954;-9.002;2023-02-23T00:37:35;100943.25;;;12.78;100.00
50434;BME280;36361;38.954;-9.002;2023-02-23T00:38:38;100949.16;;;12.75;100.00
50434;BME280;36361;38.954;-9.002;2023-02-23T00:39:39;100939.41;;;12.86;100.00
50434;BME280;36361;38.954;-9.002;2023-02-23T00:40:40;100937.53;;;13.05;100.00
50434;BME280;36361;38.954;-9.002;2023-02-23T00:41:40;100938.53;;;13.35;100.00
50434;BME280;36361;38.954;-9.002;2023-02-23T00:42:46;100936.94;;;13.28;100.00
50434;BME280;36361;38.954;-9.002;2023-02-23T00:43:46;100932.44;;;13.33;100.00
50434;BME280;36361;38.954;-9.002;2023-02-23T00:44:47;100938.00;;;13.02;100.00
50434;BME280;36361;38.954;-9.002;2023-02-23T00:45:49;100937.81;;;12.97;100.00
50434;BME280;36361;38.954;-9.002;2023-02-23T00:46:50;100934.97;;;13.10;100.00
50434;BME280;36361;38.954;-9.002;2023-02-23T00:47:51;100932.22;;;12.92;100.00
50434;BME280;36361;38.954;-9.002;2023-02-23T00:48:52;100942.16;;;13.04;100.00
50434;BME280;36361;38.954;-9.002;2023-02-23T00:49:56;100933.44;;;12.96;100.00
50434;BME280;36361;38.954;-9.002;2023-02-23T00:51:01;100930.59;;;12.84;100.00
50434;BME280;36361;38.954;-9.002;2023-02-23T00:52:03;100934.56;;;12.63;100.00
50434;BME280;36361;38.954;-9.002;2023-02-23T00:53:08;100926.75;;;12.92;100.00
50434;BME280;36361;38.954;-9.002;2023-02-23T00:54:12;100926.47;;;12.50;100.00
50434;BME280;36361;38.954;-9.002;2023-02-23T00:55:13;100927.44;;;12.62;100.00
50434;BME280;36361;38.954;-9.002;2023-02-23T00:56:15;100929.16;;;13.43;100.00
50434;BME280;36361;38.954;-9.002;2023-02-23T00:57:15;100927.34;;;13.55;100.00
50434;BME280;36361;38.954;-9.002;2023-02-23T00:58:16;100931.22;;;13.48;100.00
50434;BME280;36361;38.954;-9.002;2023-02-23T00:59:17;100930.00;;;12.82;100.00
50434;BME280;36361;38.954;-9.002;2023-02-23T01:00:19;100923.25;;;12.35;100.00
50434;BME280;36361;38.954;-9.002;2023-02-23T01:01:20;100920.50;;;12.35;100.00
50434;BME280;36361;38.954;-9.002;2023-02-23T01:02:23;100926.69;;;12.48;100.00
50434;BME280;36361;38.954;-9.002;2023-02-23T01:03:28;100923.09;;;12.55;100.00
50434;BME280;36361;38.954;-9.002;2023-02-23T01:04:29;100919.94;;;11.88;100.00
50434;BME280;36361;38.954;-9.002;2023-02-23T01:05:35;100909.84;;;11.95;100.00
50434;BME280;36361;38.954;-9.002;2023-02-23T01:06:43;100919.38;;;12.17;100.00
50434;BME280;36361;38.954;-9.002;2023-02-23T01:07:45;100916.19;;;12.20;100.00
50434;BME280;36361;38.954;-9.002;2023-02-23T01:08:48;100914.16;;;11.64;100.00
50434;BME280;36361;38.954;-9.002;2023-02-23T01:09:50;100921.66;;;11.76;100.00
50434;BME280;36361;38.954;-9.002;2023-02-23T01:10:51;100921.25;;;12.48;100.00
50434;BME280;36361;38.954;-9.002;2023-02-23T01:11:54;100915.81;;;12.92;100.00
50434;BME280;36361;38.954;-9.002;2023-02-23T01:12:55;100922.03;;;13.24;100.00
50434;BME280;36361;38.954;-9.002;2023-02-23T01:13:58;100915.22;;;12.90;100.00
50434;BME280;36361;38.954;-9.002;2023-02-23T01:14:59;100913.53;;;12.89;100.00
50434;BME280;36361;38.954;-9.002;2023-02-23T01:16:08;100910.38;;;13.35;100.00
50434;BME280;36361;38.954;-9.002;2023-02-23T01:17:09;100906.53;;;12.74;100.00
50434;BME280;36361;38.954;-9.002;2023-02-23T01:18:10;100905.59;;;12.62;100.00
50434;BME280;36361;38.954;-9.002;2023-02-23T01:19:12;100899.44;;;12.92;100.00
50434;BME280;36361;38.954;-9.002;2023-02-23T01:20:15;100899.50;;;13.28;100.00
50434;BME280;36361;38.954;-9.002;2023-02-23T01:21:27;100900.84;;;12.51;100.00
50434;BME280;36361;38.954;-9.002;2023-02-23T01:22:30;100903.69;;;12.38;100.00
50434;BME280;36361;38.954;-9.002;2023-02-23T01:23:31;100900.31;;;12.86;100.00
50434;BME280;36361;38.954;-9.002;2023-02-23T01:24:32;100896.41;;;12.57;100.00
50434;BME280;36361;38.954;-9.002;2023-02-23T01:25:33;100895.75;;;13.23;100.00
50434;BME280;36361;38.954;-9.002;2023-02-23T01:26:39;100901.09;;;12.93;100.00
50434;BME280;36361;38.954;-9.002;2023-02-23T01:27:42;100907.13;;;12.51;100.00
50434;BME280;36361;38.954;-9.002;2023-02-23T01:28:57;100899.00;;;12.70;100.00
50434;BME280;36361;38.954;-9.002;2023-02-23T01:29:58;100908.16;;;12.57;100.00
50434;BME280;36361;38.954;-9.002;2023-02-23T01:30:59;100901.19;;;13.04;100.00
50434;BME280;36361;38.954;-9.002;2023-02-23T01:31:59;100897.91;;;13.39;100.00
50434;BME280;36361;38.954;-9.002;2023-02-23T01:33:00;100907.19;;;13.13;100.00
50434;BME280;36361;38.954;-9.002;2023-02-23T01:34:02;100909.81;;;13.45;100.00
50434;BME280;36361;38.954;-9.002;2023-02-23T01:35:05;100901.75;;;13.50;100.00
50434;BME280;36361;38.954;-9.002;2023-02-23T01:36:08;100905.22;;;13.02;100.00
50434;BME280;36361;38.954;-9.002;2023-02-23T01:37:09;100896.53;;;13.30;100.00
50434;BME280;36361;38.954;-9.002;2023-02-23T01:38:10;100909.03;;;12.51;100.00
50434;BME280;36361;38.954;-9.002;2023-02-23T01:39:14;100903.19;;;13.34;100.00
50434;BME280;36361;38.954;-9.002;2023-02-23T01:40:18;100900.88;;;13.19;100.00
50434;BME280;36361;38.954;-9.002;2023-02-23T01:41:29;100904.13;;;13.28;100.00
50434;BME280;36361;38.954;-9.002;2023-02-23T01:42:36;100902.88;;;12.62;100.00
50434;BME280;36361;38.954;-9.002;2023-02-23T01:44:01;100903.34;;;12.77;100.00
50434;BME280;36361;38.954;-9.002;2023-02-23T01:46:21;100904.75;;;13.05;100.00
50434;BME280;36361;38.954;-9.002;2023-02-23T01:47:22;100900.69;;;12.14;100.00
50434;BME280;36361;38.954;-9.002;2023-02-23T01:48:41;100898.78;;;12.71;100.00
50434;BME280;36361;38.954;-9.002;2023-02-23T01:49:42;100905.88;;;13.22;100.00
50434;BME280;36361;38.954;-9.002;2023-02-23T01:52:01;100906.06;;;12.52;100.00
50434;BME280;36361;38.954;-9.002;2023-02-23T01:53:04;100897.50;;;13.17;100.00
50434;BME280;36361;38.954;-9.002;2023-02-23T01:54:08;100887.59;;;12.98;100.00
50434;BME280;36361;38.954;-9.002;2023-02-23T01:55:11;100892.41;;;12.77;100.00
50434;BME280;36361;38.954;-9.002;2023-02-23T01:56:20;100895.91;;;12.10;100.00
50434;BME280;36361;38.954;-9.002;2023-02-23T01:57:23;100895.59;;;12.49;100.00
50434;BME280;36361;38.954;-9.002;2023-02-23T01:58:30;100900.78;;;12.33;100.00
50434;BME280;36361;38.954;-9.002;2023-02-23T01:59:37;100905.34;;;13.07;100.00
50434;BME280;36361;38.954;-9.002;2023-02-23T02:00:41;100901.19;;;13.04;100.00
50434;BME280;36361;38.954;-9.002;2023-02-23T02:01:42;100903.16;;;13.16;100.00
50434;BME280;36361;38.954;-9.002;2023-02-23T02:02:43;100902.19;;;13.10;100.00
50434;BME280;36361;38.954;-9.002;2023-02-23T02:03:54;100904.97;;;12.60;100.00
50434;BME280;36361;38.954;-9.002;2023-02-23T02:04:56;100903.47;;;12.64;100.00
50434;BME280;36361;38.954;-9.002;2023-02-23T02:06:03;100899.78;;;12.77;100.00
50434;BME280;36361;38.954;-9.002;2023-02-23T02:07:04;100911.63;;;12.89;100.00
50434;BME280;36361;38.954;-9.002;2023-02-23T02:08:07;100907.16;;;12.95;100.00
50434;BME280;36361;38.954;-9.002;2023-02-23T02:09:14;100911.66;;;12.64;100.00
50434;BME280;36361;38.954;-9.002;2023-02-23T02:10:18;100906.97;;;12.46;100.00
50434;BME280;36361;38.954;-9.002;2023-02-23T02:11:39;100910.16;;;12.68;100.00
50434;BME280;36361;38.954;-9.002;2023-02-23T02:12:45;100903.25;;;12.66;100.00
50434;BME280;36361;38.954;-9.002;2023-02-23T02:13:54;100907.66;;;12.67;100.00
50434;BME280;36361;38.954;-9.002;2023-02-23T02:14:57;100895.56;;;12.56;100.00
50434;BME280;36361;38.954;-9.002;2023-02-23T02:22:16;100903.59;;;11.88;100.00
50434;BME280;36361;38.954;-9.002;2023-02-23T02:42:21;100895.91;;;11.72;100.00
50434;BME280;36361;38.954;-9.002;2023-02-23T02:44:49;100888.50;;;11.79;100.00
50434;BME280;36361;38.954;-9.002;2023-02-23T02:46:00;100893.94;;;11.79;100.00
50434;BME280;36361;38.954;-9.002;2023-02-23T02:47:08;100885.25;;;11.63;100.00
50434;BME280;36361;38.954;-9.002;2023-02-23T02:50:07;100891.06;;;11.74;100.00
50434;BME280;36361;38.954;-9.002;2023-02-23T02:52:23;100891.19;;;11.47;100.00
50434;BME280;36361;38.954;-9.002;2023-02-23T02:53:35;100881.47;;;11.64;100.00
50434;BME280;36361;38.954;-9.002;2023-02-23T02:54:48;100879.53;;;11.72;100.00
50434;BME280;36361;38.954;-9.002;2023-02-23T02:55:53;100878.03;;;11.31;100.00
50434;BME280;36361;38.954;-9.002;2023-02-23T02:56:57;100886.56;;;11.48;100.00
50434;BME280;36361;38.954;-9.002;2023-02-23T02:58:01;100886.09;;;11.57;100.00
50434;BME280;36361;38.954;-9.002;2023-02-23T02:59:04;100878.16;;;11.49;100.00
50434;BME280;36361;38.954;-9.002;2023-02-23T03:00:06;100880.28;;;11.47;100.00
50434;BME280;36361;38.954;-9.002;2023-02-23T03:01:25;100882.97;;;11.54;100.00
50434;BME280;36361;38.954;-9.002;2023-02-23T03:02:45;100872.13;;;11.85;100.00
50434;BME280;36361;38.954;-9.002;2023-02-23T03:04:24;100869.69;;;11.71;100.00
50434;BME280;36361;38.954;-9.002;2023-02-23T03:05:48;100869.38;;;11.92;100.00
50434;BME280;36361;38.954;-9.002;2023-02-23T03:07:27;100871.25;;;11.98;100.00
50434;BME280;36361;38.954;-9.002;2023-02-23T03:08:55;100868.97;;;11.88;100.00
50434;BME280;36361;38.954;-9.002;2023-02-23T03:11:58;100875.03;;;11.52;100.00
50434;BME280;36361;38.954;-9.002;2023-02-23T03:14:00;100863.59;;;11.24;100.00
50434;BME280;36361;38.954;-9.002;2023-02-23T03:22:11;100868.97;;;11.44;100.00
50434;BME280;36361;38.954;-9.002;2023-02-23T03:23:39;100866.31;;;11.24;100.00
50434;BME280;36361;38.954;-9.002;2023-02-23T03:25:15;100864.69;;;11.09;100.00
50434;BME280;36361;38.954;-9.002;2023-02-23T03:26:46;100855.22;;;11.25;100.00
50434;BME280;36361;38.954;-9.002;2023-02-23T03:28:20;100857.72;;;11.27;100.00
50434;BME280;36361;38.954;-9.002;2023-02-23T03:30:18;100853.94;;;11.28;100.00
50434;BME280;36361;38.954;-9.002;2023-02-23T03:32:06;100856.53;;;11.09;100.00
50434;BME280;36361;38.954;-9.002;2023-02-23T03:33:43;100843.53;;;11.05;100.00
50434;BME280;36361;38.954;-9.002;2023-02-23T03:35:28;100850.94;;;10.91;100.00
50434;BME280;36361;38.954;-9.002;2023-02-23T03:36:54;100841.25;;;11.08;100.00
50434;BME280;36361;38.954;-9.002;2023-02-23T03:38:21;100850.88;;;11.11;100.00
50434;BME280;36361;38.954;-9.002;2023-02-23T03:39:50;100847.81;;;10.81;100.00
50434;BME280;36361;38.954;-9.002;2023-02-23T03:41:14;100842.97;;;10.83;100.00
50434;BME280;36361;38.954;-9.002;2023-02-23T03:42:36;100847.38;;;10.84;100.00
50434;BME280;36361;38.954;-9.002;2023-02-23T03:44:00;100843.13;;;11.08;100.00
50434;BME280;36361;38.954;-9.002;2023-02-23T03:45:23;100843.19;;;10.88;100.00
50434;BME280;36361;38.954;-9.002;2023-02-23T03:46:46;100841.34;;;11.33;100.00
50434;BME280;36361;38.954;-9.002;2023-02-23T03:48:10;100843.44;;;11.38;100.00
50434;BME280;36361;38.954;-9.002;2023-02-23T03:49:34;100843.88;;;11.28;100.00
50434;BME280;36361;38.954;-9.002;2023-02-23T03:51:00;100845.16;;;11.26;100.00
50434;BME280;36361;38.954;-9.002;2023-02-23T03:52:25;100846.84;;;11.27;100.00
50434;BME280;36361;38.954;-9.002;2023-02-23T03:55:24;100837.31;;;10.91;100.00
50434;BME280;36361;38.954;-9.002;2023-02-23T03:56:47;100840.53;;;10.62;100.00
50434;BME280;36361;38.954;-9.002;2023-02-23T03:58:12;100835.47;;;10.72;100.00
50434;BME280;36361;38.954;-9.002;2023-02-23T03:59:37;100837.75;;;10.81;100.00
50434;BME280;36361;38.954;-9.002;2023-02-23T04:01:00;100837.75;;;10.88;100.00
50434;BME280;36361;38.954;-9.002;2023-02-23T04:02:21;100828.00;;;11.19;100.00
50434;BME280;36361;38.954;-9.002;2023-02-23T04:03:43;100837.16;;;11.31;100.00
50434;BME280;36361;38.954;-9.002;2023-02-23T04:05:07;100834.88;;;11.28;100.00
50434;BME280;36361;38.954;-9.002;2023-02-23T04:06:35;100830.28;;;11.66;100.00
50434;BME280;36361;38.954;-9.002;2023-02-23T04:07:57;100829.88;;;11.63;100.00
50434;BME280;36361;38.954;-9.002;2023-02-23T04:09:18;100832.88;;;11.48;100.00
50434;BME280;36361;38.954;-9.002;2023-02-23T04:10:46;100831.31;;;11.34;100.00
50434;BME280;36361;38.954;-9.002;2023-02-23T04:12:21;100830.84;;;11.37;100.00
50434;BME280;36361;38.954;-9.002;2023-02-23T04:13:47;100825.78;;;11.47;100.00
50434;BME280;36361;38.954;-9.002;2023-02-23T04:15:02;100822.47;;;11.70;100.00
50434;BME280;36361;38.954;-9.002;2023-02-23T04:16:08;100824.19;;;11.71;100.00
50434;BME280;36361;38.954;-9.002;2023-02-23T04:17:10;100820.31;;;11.47;100.00
50434;BME280;36361;38.954;-9.002;2023-02-23T04:18:14;100822.59;;;11.50;100.00
50434;BME280;36361;38.954;-9.002;2023-02-23T04:19:15;100823.66;;;11.49;100.00
50434;BME280;36361;38.954;-9.002;2023-02-23T04:20:16;100824.47;;;11.56;100.00
50434;BME280;36361;38.954;-9.002;2023-02-23T04:21:16;100820.28;;;11.54;100.00
50434;BME280;36361;38.954;-9.002;2023-02-23T04:22:17;100812.75;;;11.87;100.00
50434;BME280;36361;38.954;-9.002;2023-02-23T04:23:18;100819.00;;;11.56;100.00
50434;BME280;36361;38.954;-9.002;2023-02-23T04:24:19;100819.50;;;11.40;100.00
50434;BME280;36361;38.954;-9.002;2023-02-23T04:25:20;100826.88;;;11.33;100.00
50434;BME280;36361;38.954;-9.002;2023-02-23T04:26:24;100819.28;;;11.42;100.00
50434;BME280;36361;38.954;-9.002;2023-02-23T04:27:24;100823.41;;;11.13;100.00
50434;BME280;36361;38.954;-9.002;2023-02-23T04:28:26;100827.19;;;11.11;100.00
50434;BME280;36361;38.954;-9.002;2023-02-23T04:29:27;100825.13;;;11.00;100.00
50434;BME280;36361;38.954;-9.002;2023-02-23T04:30:28;100823.31;;;10.81;100.00
50434;BME280;36361;38.954;-9.002;2023-02-23T04:31:28;100814.41;;;11.05;100.00
50434;BME280;36361;38.954;-9.002;2023-02-23T04:32:29;100819.22;;;11.10;100.00
50434;BME280;36361;38.954;-9.002;2023-02-23T04:33:30;100817.09;;;11.19;100.00
50434;BME280;36361;38.954;-9.002;2023-02-23T04:34:30;100812.84;;;11.36;100.00
50434;BME280;36361;38.954;-9.002;2023-02-23T04:35:31;100824.22;;;11.20;100.00
50434;BME280;36361;38.954;-9.002;2023-02-23T04:36:32;100819.50;;;11.40;100.00
50434;BME280;36361;38.954;-9.002;2023-02-23T04:37:33;100817.47;;;11.29;100.00
50434;BME280;36361;38.954;-9.002;2023-02-23T04:38:34;100809.22;;;11.42;100.00
50434;BME280;36361;38.954;-9.002;2023-02-23T04:39:34;100816.91;;;11.14;100.00
50434;BME280;36361;38.954;-9.002;2023-02-23T04:40:35;100821.28;;;11.21;100.00
50434;BME280;36361;38.954;-9.002;2023-02-23T04:41:36;100815.84;;;11.15;100.00
50434;BME280;36361;38.954;-9.002;2023-02-23T04:42:40;100805.94;;;10.82;100.00
50434;BME280;36361;38.954;-9.002;2023-02-23T04:43:42;100814.94;;;10.76;100.00
50434;BME280;36361;38.954;-9.002;2023-02-23T04:44:43;100818.88;;;10.93;100.00
50434;BME280;36361;38.954;-9.002;2023-02-23T04:45:44;100813.41;;;10.93;100.00
50434;BME280;36361;38.954;-9.002;2023-02-23T04:46:48;100806.91;;;10.94;100.00
50434;BME280;36361;38.954;-9.002;2023-02-23T04:47:49;100802.22;;;10.57;100.00
50434;BME280;36361;38.954;-9.002;2023-02-23T04:48:50;100809.53;;;10.63;100.00
50434;BME280;36361;38.954;-9.002;2023-02-23T04:49:52;100811.97;;;10.84;100.00
50434;BME280;36361;38.954;-9.002;2023-02-23T04:50:53;100811.59;;;10.67;100.00
50434;BME280;36361;38.954;-9.002;2023-02-23T04:51:54;100814.75;;;10.71;100.00
50434;BME280;36361;38.954;-9.002;2023-02-23T04:52:55;100808.47;;;10.64;100.00
50434;BME280;36361;38.954;-9.002;2023-02-23T04:53:56;100806.59;;;10.58;100.00
50434;BME280;36361;38.954;-9.002;2023-02-23T04:54:56;100804.72;;;10.65;100.00
50434;BME280;36361;38.954;-9.002;2023-02-23T04:55:57;100808.03;;;10.73;100.00
50434;BME280;36361;38.954;-9.002;2023-02-23T04:56:58;100812.81;;;10.78;100.00
50434;BME280;36361;38.954;-9.002;2023-02-23T04:58:00;100812.41;;;10.81;100.00
50434;BME280;36361;38.954;-9.002;2023-02-23T04:59:01;100811.53;;;11.00;100.00
50434;BME280;36361;38.954;-9.002;2023-02-23T05:00:02;100811.75;;;10.92;100.00
50434;BME280;36361;38.954;-9.002;2023-02-23T05:01:05;100811.75;;;10.92;100.00
50434;BME280;36361;38.954;-9.002;2023-02-23T05:02:07;100811.75;;;10.92;100.00
50434;BME280;36361;38.954;-9.002;2023-02-23T05:03:07;100811.13;;;10.90;100.00
50434;BME280;36361;38.954;-9.002;2023-02-23T05:04:09;100816.81;;;10.89;100.00
50434;BME280;36361;38.954;-9.002;2023-02-23T05:05:10;100816.38;;;10.78;100.00
50434;BME280;36361;38.954;-9.002;2023-02-23T05:06:11;100813.66;;;10.78;100.00
50434;BME280;36361;38.954;-9.002;2023-02-23T05:07:12;100814.84;;;11.02;100.00
50434;BME280;36361;38.954;-9.002;2023-02-23T05:08:13;100813.41;;;11.06;100.00
50434;BME280;36361;38.954;-9.002;2023-02-23T05:09:16;100818.88;;;10.93;100.00
50434;BME280;36361;38.954;-9.002;2023-02-23T05:10:17;100818.31;;;10.65;100.00
50434;BME280;36361;38.954;-9.002;2023-02-23T05:11:17;100826.91;;;10.48;100.00
50434;BME280;36361;38.954;-9.002;2023-02-23T05:12:18;100823.97;;;10.57;100.00
50434;BME280;36361;38.954;-9.002;2023-02-23T05:13:20;100821.44;;;10.75;100.00
50434;BME280;36361;38.954;-9.002;2023-02-23T05:14:21;100823.97;;;10.70;100.00
50434;BME280;36361;38.954;-9.002;2023-02-23T05:15:22;100816.41;;;10.72;100.00
50434;BME280;36361;38.954;-9.002;2023-02-23T05:16:22;100821.44;;;10.75;100.00
50434;BME280;36361;38.954;-9.002;2023-02-23T05:17:23;100822.69;;;10.79;100.00
50434;BME280;36361;38.954;-9.002;2023-02-23T05:18:24;100826.44;;;10.78;100.00
50434;BME280;36361;38.954;-9.002;2023-02-23T05:19:29;100828.97;;;10.79;100.00
50434;BME280;36361;38.954;-9.002;2023-02-23T05:20:33;100830.69;;;10.54;100.00
50434;BME280;36361;38.954;-9.002;2023-02-23T05:21:34;100826.03;;;10.68;100.00
50434;BME280;36361;38.954;-9.002;2023-02-23T05:22:38;100832.72;;;10.85;100.00
50434;BME280;36361;38.954;-9.002;2023-02-23T05:23:39;100830.16;;;10.97;100.00
50434;BME280;36361;38.954;-9.002;2023-02-23T05:24:40;100825.59;;;10.84;100.00
50434;BME280;36361;38.954;-9.002;2023-02-23T05:25:41;100833.53;;;10.86;100.00
50434;BME280;36361;38.954;-9.002;2023-02-23T05:26:42;100832.88;;;11.03;100.00
50434;BME280;36361;38.954;-9.002;2023-02-23T05:27:43;100828.69;;;11.01;100.00
50434;BME280;36361;38.954;-9.002;2023-02-23T05:28:44;100828.72;;;10.94;100.00
50434;BME280;36361;38.954;-9.002;2023-02-23T05:29:44;100824.38;;;10.80;100.00
50434;BME280;36361;38.954;-9.002;2023-02-23T05:30:45;100825.81;;;10.89;100.00
50434;BME280;36361;38.954;-9.002;2023-02-23T05:31:46;100824.53;;;10.98;100.00
50434;BME280;36361;38.954;-9.002;2023-02-23T05:32:47;100831.88;;;10.91;100.00
50434;BME280;36361;38.954;-9.002;2023-02-23T05:33:48;100819.69;;;11.00;100.00
50434;BME280;36361;38.954;-9.002;2023-02-23T05:34:49;100831.03;;;10.84;100.00
50434;BME280;36361;38.954;-9.002;2023-02-23T05:35:49;100823.78;;;11.23;100.00
50434;BME280;36361;38.954;-9.002;2023-02-23T05:36:50;100827.97;;;11.25;100.00
50434;BME280;36361;38.954;-9.002;2023-02-23T05:37:51;100822.19;;;11.02;100.00
50434;BME280;36361;38.954;-9.002;2023-02-23T05:38:52;100817.09;;;11.19;100.00
50434;BME280;36361;38.954;-9.002;2023-02-23T05:39:53;100819.59;;;11.20;100.00
50434;BME280;36361;38.954;-9.002;2023-02-23T05:40:53;100819.22;;;11.10;100.00
50434;BME280;36361;38.954;-9.002;2023-02-23T05:41:54;100828.03;;;11.05;100.00
50434;BME280;36361;38.954;-9.002;2023-02-23T05:43:01;100822.44;;;10.87;100.00
50434;BME280;36361;38.954;-9.002;2023-02-23T05:44:02;100824.72;;;10.97;100.00
50434;BME280;36361;38.954;-9.002;2023-02-23T05:45:03;100822.47;;;10.74;100.00
50434;BME280;36361;38.954;-9.002;2023-02-23T05:46:09;100819.75;;;10.74;100.00
50434;BME280;36361;38.954;-9.002;2023-02-23T05:47:10;100821.59;;;10.87;100.00
50434;BME280;36361;38.954;-9.002;2023-02-23T05:48:11;100813.25;;;10.81;100.00
50434;BME280;36361;38.954;-9.002;2023-02-23T05:49:12;100816.66;;;10.64;100.00
50434;BME280;36361;38.954;-9.002;2023-02-23T05:50:16;100816.81;;;10.82;100.00
50434;BME280;36361;38.954;-9.002;2023-02-23T05:51:17;100811.53;;;10.87;100.00
50434;BME280;36361;38.954;-9.002;2023-02-23T05:52:18;100813.69;;;10.72;100.00
50434;BME280;36361;38.954;-9.002;2023-02-23T05:53:18;100817.25;;;10.79;100.00
50434;BME280;36361;38.954;-9.002;2023-02-23T05:54:19;100811.97;;;10.84;100.00
50434;BME280;36361;38.954;-9.002;2023-02-23T05:55:20;100813.47;;;10.73;100.00
50434;BME280;36361;38.954;-9.002;2023-02-23T05:56:21;100810.97;;;10.72;100.00
50434;BME280;36361;38.954;-9.002;2023-02-23T05:57:22;100817.44;;;10.77;100.00
50434;BME280;36361;38.954;-9.002;2023-02-23T05:58:23;100826.03;;;10.68;100.00
50434;BME280;36361;38.954;-9.002;2023-02-23T05:59:24;100818.53;;;10.70;100.00
50434;BME280;36361;38.954;-9.002;2023-02-23T06:00:25;100818.94;;;10.60;100.00
50434;BME280;36361;38.954;-9.002;2023-02-23T06:01:26;100813.13;;;10.43;100.00
50434;BME280;36361;38.954;-9.002;2023-02-23T06:02:26;100810.19;;;10.45;100.00
50434;BME280;36361;38.954;-9.002;2023-02-23T06:03:27;100802.81;;;10.59;100.00
50434;BME280;36361;38.954;-9.002;2023-02-23T06:04:28;100811.75;;;10.92;100.00
50434;BME280;36361;38.954;-9.002;2023-02-23T06:05:31;100809.03;;;10.86;100.00
50434;BME280;36361;38.954;-9.002;2023-02-23T06:06:32;100813.81;;;11.03;100.00
50434;BME280;36361;38.954;-9.002;2023-02-23T06:07:33;100810.09;;;10.78;100.00
50434;BME280;36361;38.954;-9.002;2023-02-23T06:08:37;100807.97;;;10.93;100.00
50434;BME280;36361;38.954;-9.002;2023-02-23T06:09:38;100816.38;;;10.78;100.00
50434;BME280;36361;38.954;-9.002;2023-02-23T06:10:38;100822.69;;;10.79;100.00
50434;BME280;36361;38.954;-9.002;2023-02-23T06:11:39;100808.03;;;10.80;100.00
50434;BME280;36361;38.954;-9.002;2023-02-23T06:12:40;100817.22;;;10.86;100.00
50434;BME280;36361;38.954;-9.002;2023-02-23T06:13:43;100812.66;;;10.60;100.00
50434;BME280;36361;38.954;-9.002;2023-02-23T06:14:44;100812.66;;;10.73;100.00
50434;BME280;36361;38.954;-9.002;2023-02-23T06:15:45;100818.84;;;11.06;100.00
50434;BME280;36361;38.954;-9.002;2023-02-23T06:16:46;100819.69;;;11.07;100.00
50434;BME280;36361;38.954;-9.002;2023-02-23T06:17:48;100820.88;;;11.18;100.00
50434;BME280;36361;38.954;-9.002;2023-02-23T06:18:48;100820.44;;;11.21;100.00
50434;BME280;36361;38.954;-9.002;2023-02-23T06:19:49;100818.69;;;10.88;100.00